createdAt,value
2018-05-04T00:00:16.613Z,56.60
2018-05-04T00:02:46.536Z,56.60
2018-05-04T00:05:16.627Z,56.60
2018-05-04T00:07:47.647Z,56.60
2018-05-04T00:10:17.709Z,56.70
2018-05-04T00:12:47.708Z,56.70
2018-05-04T00:15:17.860Z,56.40
2018-05-04T00:17:48.782Z,56.90
2018-05-04T00:20:19.259Z,56.90
2018-05-04T00:22:49.270Z,57.00
2018-05-04T00:25:19.402Z,57.10
2018-05-04T00:27:49.413Z,57.00
2018-05-04T00:30:19.377Z,57.20
2018-05-04T00:32:49.292Z,57.00
2018-05-04T00:35:19.921Z,56.70
2018-05-04T00:37:49.920Z,56.50
2018-05-04T00:40:20.828Z,56.20
2018-05-04T00:42:51.192Z,56.60
2018-05-04T00:45:22.054Z,56.70
2018-05-04T00:47:52.636Z,56.70
2018-05-04T00:50:22.778Z,56.70
2018-05-04T00:52:52.636Z,57.00
2018-05-04T00:55:22.942Z,56.80
2018-05-04T00:57:53.907Z,56.90
2018-05-04T01:00:24.847Z,57.20
2018-05-04T01:02:55.073Z,57.20
2018-05-04T01:05:25.252Z,57.20
2018-05-04T01:07:55.336Z,57.00
2018-05-04T01:10:25.492Z,57.10
2018-05-04T01:12:55.393Z,57.40
2018-05-04T01:15:25.239Z,57.80
2018-05-04T01:17:56.578Z,57.60
2018-05-04T01:20:27.458Z,57.10
2018-05-04T01:22:57.340Z,57.00
2018-05-04T01:25:28.344Z,57.60
2018-05-04T01:27:58.207Z,57.00
2018-05-04T01:30:28.897Z,56.60
2018-05-04T01:32:58.758Z,56.60
2018-05-04T01:35:29.457Z,57.20
2018-05-04T01:37:59.803Z,57.50
2018-05-04T01:40:30.763Z,57.30
2018-05-04T01:43:00.874Z,57.40
2018-05-04T01:45:31.012Z,57.10
2018-05-04T01:48:00.989Z,57.20
2018-05-04T01:50:31.685Z,57.60
2018-05-04T01:53:02.183Z,57.60
2018-05-04T01:55:32.424Z,57.40
2018-05-04T01:58:02.483Z,57.20
2018-05-04T02:00:32.812Z,57.10
2018-05-04T02:03:03.497Z,56.10
2018-05-04T02:05:33.794Z,57.40
2018-05-04T02:08:05.001Z,57.80
2018-05-04T02:10:35.324Z,58.00
2018-05-04T02:13:05.455Z,57.30
2018-05-04T02:15:35.498Z,57.40
2018-05-04T02:18:05.875Z,57.60
2018-05-04T02:20:37.080Z,58.20
2018-05-04T02:23:07.016Z,58.20
2018-05-04T02:25:37.355Z,58.10
2018-05-04T02:28:07.503Z,58.00
2018-05-04T02:30:37.638Z,57.90
2018-05-04T02:33:08.573Z,58.20
2018-05-04T02:35:39.393Z,58.10
2018-05-04T02:38:11.017Z,57.90
2018-05-04T02:40:40.953Z,57.90
2018-05-04T02:43:11.100Z,58.00
2018-05-04T02:45:42.277Z,58.20
2018-05-04T02:48:12.242Z,58.20
2018-05-04T02:50:42.303Z,58.50
2018-05-04T02:53:12.861Z,58.10
2018-05-04T02:55:42.939Z,58.40
2018-05-04T02:58:13.131Z,58.10
2018-05-04T03:00:43.642Z,58.10
2018-05-04T03:03:13.841Z,58.10
2018-05-04T03:05:43.721Z,58.20
2018-05-04T03:08:13.782Z,58.30
2018-05-04T03:10:43.966Z,58.20
2018-05-04T03:13:14.220Z,58.40
2018-05-04T03:15:44.712Z,58.30
2018-05-04T03:18:16.303Z,58.10
2018-05-04T03:20:46.859Z,58.00
2018-05-04T03:23:16.865Z,58.10
2018-05-04T03:25:46.709Z,58.30
2018-05-04T03:28:17.624Z,58.40
2018-05-04T03:30:47.657Z,58.40
2018-05-04T03:33:17.793Z,58.10
2018-05-04T03:35:49.806Z,58.00
2018-05-04T03:38:19.638Z,58.00
2018-05-04T03:40:49.628Z,58.10
2018-05-04T03:43:19.786Z,58.20
2018-05-04T03:45:50.039Z,58.10
2018-05-04T03:48:20.639Z,58.00
2018-05-04T03:50:51.703Z,57.90
2018-05-04T03:53:21.779Z,58.00
2018-05-04T03:55:51.824Z,58.30
2018-05-04T04:00:34.783Z,59.40
2018-05-04T04:04:18.670Z,59.70
2018-05-04T04:06:49.277Z,58.60
2018-05-04T04:09:19.216Z,57.20
2018-05-04T04:11:49.647Z,58.20
2018-05-04T04:14:20.678Z,58.10
2018-05-04T04:16:51.198Z,57.60
2018-05-04T04:19:21.525Z,57.90
2018-05-04T04:21:52.091Z,58.10
2018-05-04T04:24:22.537Z,57.80
2018-05-04T04:26:53.684Z,57.40
2018-05-04T04:29:24.460Z,58.10
2018-05-04T04:31:54.797Z,57.40
2018-05-04T04:34:24.843Z,57.30
2018-05-04T04:36:56.064Z,57.30
2018-05-04T04:39:26.369Z,57.20
2018-05-04T04:41:56.391Z,57.10
2018-05-04T04:44:27.428Z,56.80
2018-05-04T04:46:57.866Z,56.70
2018-05-04T04:49:27.868Z,56.90
2018-05-04T04:51:57.884Z,57.40
2018-05-04T04:54:27.990Z,56.30
2018-05-04T04:56:58.018Z,56.00
2018-05-04T04:59:28.522Z,55.90
2018-05-04T05:02:00.804Z,55.90
2018-05-04T05:04:31.515Z,55.90
2018-05-04T05:07:02.206Z,56.00
2018-05-04T05:09:32.520Z,55.70
2018-05-04T05:12:02.631Z,55.80
2018-05-04T05:14:33.275Z,55.70
2018-05-04T05:17:06.657Z,55.60
2018-05-04T05:19:37.121Z,56.20
2018-05-04T05:22:17.420Z,56.30
2018-05-04T05:24:47.760Z,56.10
2018-05-04T05:27:18.176Z,52.90
2018-05-04T05:29:49.301Z,46.80
2018-05-04T05:32:20.489Z,45.70
2018-05-04T05:34:51.524Z,45.70
2018-05-04T05:37:22.146Z,43.60
2018-05-04T05:39:52.982Z,41.90
2018-05-04T05:42:25.545Z,40.70
2018-05-04T05:44:56.729Z,39.60
2018-05-04T05:47:27.997Z,39.60
2018-05-04T05:49:58.422Z,38.10
2018-05-04T05:52:29.044Z,37.70
2018-05-04T05:54:59.755Z,36.90
2018-05-04T05:57:30.005Z,36.80
2018-05-04T06:00:01.017Z,37.40
2018-05-04T06:02:31.984Z,37.40
2018-05-04T06:05:02.763Z,37.40
2018-05-04T06:07:34.886Z,37.60
2018-05-04T06:10:05.778Z,37.60
2018-05-04T06:12:36.259Z,37.70
2018-05-04T06:15:15.939Z,40.90
2018-05-04T06:17:47.742Z,40.80
2018-05-04T06:20:20.407Z,42.90
2018-05-04T06:22:52.405Z,44.90
2018-05-04T06:25:25.824Z,46.70
2018-05-04T06:27:58.450Z,48.30
2018-05-04T06:30:46.534Z,50.20
2018-05-04T06:33:18.326Z,52.00
2018-05-04T06:35:50.961Z,53.50
2018-05-04T06:38:23.375Z,55.20
2018-05-04T06:40:58.163Z,57.60
2018-05-04T06:43:30.529Z,57.60
2018-05-04T06:46:04.432Z,58.40
2018-05-04T06:48:36.882Z,58.50
2018-05-04T06:51:10.207Z,57.40
2018-05-04T06:53:41.325Z,56.60
2018-05-04T06:56:12.895Z,56.10
2018-05-04T06:58:44.761Z,56.40
2018-05-04T07:01:16.141Z,57.50
2018-05-04T07:03:50.062Z,59.80
2018-05-04T07:06:23.496Z,58.70
2018-05-04T07:08:53.620Z,58.70
2018-05-04T07:11:24.091Z,59.50
2018-05-04T07:13:54.440Z,60.00
2018-05-04T07:16:26.104Z,60.40
2018-05-04T07:18:58.333Z,60.60
2018-05-04T07:21:28.290Z,60.50
2018-05-04T07:23:59.648Z,58.60
2018-05-04T07:26:30.972Z,58.60
2018-05-04T07:29:02.916Z,55.10
2018-05-04T07:31:34.182Z,55.10
2018-05-04T07:34:06.601Z,51.90
2018-05-04T07:36:37.177Z,52.90
2018-05-04T07:39:18.048Z,52.30
2018-05-04T07:41:53.267Z,52.60
2018-05-04T07:44:24.749Z,52.50
2018-05-04T07:46:55.949Z,51.70
2018-05-04T07:49:27.438Z,51.60
2018-05-04T07:51:58.872Z,50.00
2018-05-04T07:54:29.199Z,49.90
2018-05-04T07:56:59.912Z,50.30
2018-05-04T07:59:31.589Z,49.40
2018-05-04T08:02:02.809Z,49.80
2018-05-04T08:04:33.945Z,49.70
2018-05-04T08:07:06.008Z,49.40
2018-05-04T08:09:36.626Z,49.20
2018-05-04T08:12:08.226Z,47.50
2018-05-04T08:14:40.977Z,46.80
2018-05-04T08:17:17.317Z,46.80
2018-05-04T08:19:48.022Z,46.80
2018-05-04T08:22:19.372Z,47.20
2018-05-04T08:24:51.402Z,47.40
2018-05-04T08:27:23.072Z,47.60
2018-05-04T08:29:53.651Z,47.60
2018-05-04T08:32:24.881Z,47.20
2018-05-04T08:34:56.463Z,48.80
2018-05-04T08:37:26.991Z,48.70
2018-05-04T08:39:57.384Z,48.70
2018-05-04T08:42:33.690Z,48.70
2018-05-04T08:45:04.976Z,49.30
2018-05-04T08:47:36.236Z,47.70
2018-05-04T08:50:08.616Z,47.60
2018-05-04T08:52:40.015Z,47.60
2018-05-04T08:55:11.686Z,47.00
2018-05-04T08:57:43.266Z,47.70
2018-05-04T09:00:14.064Z,48.40
2018-05-04T09:02:45.255Z,48.50
2018-05-04T09:05:16.752Z,49.90
2018-05-04T09:07:47.451Z,48.20
2018-05-04T09:10:18.285Z,46.90
2018-05-04T09:12:49.391Z,45.20
2018-05-04T09:15:20.767Z,44.50
2018-05-04T09:17:55.206Z,44.30
2018-05-04T09:20:26.803Z,44.70
2018-05-04T09:22:57.677Z,45.70
2018-05-04T09:25:30.473Z,44.50
2018-05-04T09:28:06.077Z,44.90
2018-05-04T09:30:44.886Z,44.80
2018-05-04T09:33:17.100Z,45.00
2018-05-04T09:35:47.837Z,45.20
2018-05-04T09:38:18.567Z,45.30
2018-05-04T09:40:50.212Z,45.00
2018-05-04T09:43:21.932Z,44.90
2018-05-04T09:45:54.010Z,44.80
2018-05-04T09:48:25.013Z,46.70
2018-05-04T09:51:02.507Z,43.60
2018-05-04T09:53:34.271Z,44.70
2018-05-04T09:56:05.393Z,44.60
2018-05-04T09:58:36.964Z,44.30
2018-05-04T10:01:07.255Z,44.80
2018-05-04T10:03:41.181Z,46.00
2018-05-04T10:06:16.733Z,46.00
2018-05-04T10:08:47.769Z,46.00
2018-05-04T10:11:18.905Z,46.50
2018-05-04T10:13:50.161Z,45.90
2018-05-04T10:16:21.696Z,46.10
2018-05-04T10:18:55.605Z,45.70
2018-05-04T10:21:28.443Z,44.00
2018-05-04T10:23:59.754Z,44.30
2018-05-04T10:26:32.166Z,44.20
2018-05-04T10:29:04.416Z,45.50
2018-05-04T10:31:38.834Z,45.80
2018-05-04T10:34:09.405Z,44.80
2018-05-04T10:36:41.870Z,44.60
2018-05-04T10:39:18.145Z,45.10
2018-05-04T10:41:50.601Z,44.50
2018-05-04T10:44:25.894Z,44.40
2018-05-04T10:46:59.668Z,43.30
2018-05-04T10:50:52.035Z,43.50
2018-05-04T10:53:29.834Z,43.10
2018-05-04T10:56:06.666Z,43.00
2018-05-04T10:58:38.225Z,42.20
2018-05-04T11:01:14.956Z,41.60
2018-05-04T11:03:45.922Z,42.60
2018-05-04T11:06:16.737Z,43.10
2018-05-04T11:08:48.425Z,41.90
2018-05-04T11:11:18.884Z,42.70
2018-05-04T11:13:50.850Z,43.80
2018-05-04T11:16:24.189Z,43.80
2018-05-04T11:18:57.348Z,43.90
2018-05-04T11:22:51.984Z,44.30
2018-05-04T11:25:25.883Z,44.40
2018-05-04T11:27:57.026Z,44.10
2018-05-04T11:30:29.877Z,43.60
2018-05-04T11:33:03.632Z,42.40
2018-05-04T11:35:40.529Z,42.40
2018-05-04T11:38:16.076Z,41.90
2018-05-04T11:40:50.869Z,41.70
2018-05-04T11:43:33.528Z,41.20
2018-05-04T11:46:14.708Z,41.40
2018-05-04T11:48:50.999Z,41.70
2018-05-04T11:51:24.804Z,42.00
2018-05-04T11:53:56.969Z,40.00
2018-05-04T11:56:32.280Z,41.10
2018-05-04T11:59:03.795Z,41.00
2018-05-04T12:01:34.663Z,41.20
2018-05-04T12:04:05.541Z,40.90
2018-05-04T12:06:39.311Z,41.10
2018-05-04T12:09:10.622Z,41.10
2018-05-04T12:11:46.525Z,41.00
2018-05-04T12:14:18.629Z,41.00
2018-05-04T12:16:50.619Z,40.60
2018-05-04T12:19:22.216Z,40.60
2018-05-04T12:21:54.860Z,40.30
2018-05-04T12:24:25.728Z,40.40
2018-05-04T12:26:56.574Z,40.70
2018-05-04T12:29:27.323Z,39.30
2018-05-04T12:31:58.745Z,40.40
2018-05-04T12:34:29.940Z,40.30
2018-05-04T12:37:00.219Z,40.40
2018-05-04T12:39:33.489Z,40.30
2018-05-04T12:42:04.772Z,40.30
2018-05-04T12:44:36.430Z,40.20
2018-05-04T12:47:10.055Z,40.20
2018-05-04T12:49:41.636Z,41.00
2018-05-04T12:52:13.109Z,40.90
2018-05-04T12:54:43.558Z,40.20
2018-05-04T12:57:14.643Z,40.50
2018-05-04T12:59:48.887Z,40.50
2018-05-04T13:02:19.809Z,39.90
2018-05-04T13:04:52.267Z,39.60
2018-05-04T13:07:26.530Z,39.90
2018-05-04T13:09:57.232Z,41.40
2018-05-04T13:12:28.887Z,39.50
2018-05-04T13:15:00.675Z,39.40
2018-05-04T13:17:31.020Z,39.00
2018-05-04T13:20:01.677Z,38.90
2018-05-04T13:22:33.604Z,38.90
2018-05-04T13:25:05.575Z,38.90
2018-05-04T13:27:41.840Z,38.50
2018-05-04T13:30:18.070Z,36.20
2018-05-04T13:32:49.974Z,37.40
2018-05-04T13:35:21.477Z,37.40
2018-05-04T13:37:53.220Z,37.40
2018-05-04T13:40:23.741Z,37.40
2018-05-04T13:42:57.029Z,37.60
2018-05-04T13:45:27.572Z,38.90
2018-05-04T13:47:58.728Z,39.40
2018-05-04T13:50:32.416Z,39.80
2018-05-04T13:53:02.983Z,39.00
2018-05-04T13:55:36.190Z,39.30
2018-05-04T13:58:07.262Z,39.60
2018-05-04T14:00:39.039Z,39.80
2018-05-04T14:03:09.992Z,39.80
2018-05-04T14:05:40.209Z,39.70
2018-05-04T14:08:11.196Z,40.00
2018-05-04T14:10:43.566Z,39.20
2018-05-04T14:13:15.221Z,39.20
2018-05-04T14:15:47.465Z,37.70
2018-05-04T14:18:18.045Z,38.80
2018-05-04T14:20:50.454Z,39.40
2018-05-04T14:23:21.472Z,38.80
2018-05-04T14:25:52.303Z,38.30
2018-05-04T14:28:23.917Z,39.00
2018-05-04T14:30:55.944Z,39.70
2018-05-04T14:33:27.842Z,39.70
2018-05-04T14:35:57.999Z,38.20
2018-05-04T14:38:29.765Z,39.10
2018-05-04T14:41:01.019Z,39.20
2018-05-04T14:43:32.694Z,38.30
2018-05-04T14:46:03.993Z,36.80
2018-05-04T14:48:34.367Z,38.20
2018-05-04T14:51:06.628Z,38.20
2018-05-04T14:53:39.213Z,38.00
2018-05-04T14:56:10.555Z,38.40
2018-05-04T14:58:42.475Z,38.40
2018-05-04T15:01:14.374Z,38.00
2018-05-04T15:03:46.224Z,38.20
2018-05-04T15:06:16.924Z,37.60
2018-05-04T15:08:49.342Z,38.10
2018-05-04T15:11:23.584Z,37.80
2018-05-04T15:14:02.102Z,37.80
2018-05-04T15:16:34.530Z,37.50
2018-05-04T15:19:08.176Z,39.30
2018-05-04T15:21:43.004Z,38.40
2018-05-04T15:24:21.489Z,39.10
2018-05-04T15:26:54.517Z,38.80
2018-05-04T15:29:26.822Z,38.20
2018-05-04T15:31:58.691Z,38.20
2018-05-04T15:34:32.269Z,38.70
2018-05-04T15:37:06.700Z,38.70
2018-05-04T15:39:38.637Z,40.10
2018-05-04T15:42:09.215Z,40.00
2018-05-04T15:44:40.047Z,40.30
2018-05-04T15:47:11.626Z,41.10
2018-05-04T15:49:42.401Z,40.40
2018-05-04T15:52:13.301Z,40.60
2018-05-04T15:54:45.073Z,41.00
2018-05-04T15:57:17.283Z,41.30
2018-05-04T15:59:50.168Z,40.80
2018-05-04T16:02:22.971Z,40.30
2018-05-04T16:04:54.111Z,40.20
2018-05-04T16:07:26.694Z,41.30
2018-05-04T16:09:58.412Z,41.30
2018-05-04T16:12:30.568Z,42.70
2018-05-04T16:15:04.487Z,41.90
2018-05-04T16:17:37.308Z,41.90
2018-05-04T16:20:09.450Z,41.60
2018-05-04T16:22:40.986Z,41.20
2018-05-04T16:25:13.346Z,41.30
2018-05-04T16:27:45.125Z,42.10
2018-05-04T16:30:19.496Z,42.10
2018-05-04T16:32:52.232Z,42.10
2018-05-04T16:35:24.274Z,42.60
2018-05-04T16:37:55.243Z,42.90
2018-05-04T16:40:27.554Z,42.60
2018-05-04T16:42:58.633Z,42.50
2018-05-04T16:45:29.340Z,42.80
2018-05-04T16:48:04.273Z,42.20
2018-05-04T16:50:36.252Z,42.40
2018-05-04T16:53:07.517Z,42.20
2018-05-04T16:55:39.839Z,43.10
2018-05-04T16:58:10.734Z,43.20
2018-05-04T17:00:43.753Z,43.40
2018-05-04T17:03:15.509Z,43.00
2018-05-04T17:05:46.680Z,41.60
2018-05-04T17:08:18.025Z,43.10
2018-05-04T17:10:48.908Z,43.20
2018-05-04T17:13:24.515Z,43.30
2018-05-04T17:15:55.436Z,43.20
2018-05-04T17:18:26.083Z,42.90
2018-05-04T17:20:57.200Z,42.90
2018-05-04T17:23:27.803Z,43.20
2018-05-04T17:26:00.411Z,43.20
2018-05-04T17:28:31.304Z,43.10
2018-05-04T17:31:02.716Z,43.40
2018-05-04T17:33:33.415Z,43.00
2018-05-04T17:36:10.294Z,44.20
2018-05-04T17:38:41.263Z,44.20
2018-05-04T17:41:13.666Z,44.20
2018-05-04T17:43:48.372Z,44.40
2018-05-04T17:46:19.242Z,44.50
2018-05-04T17:48:51.996Z,44.70
2018-05-04T17:51:22.551Z,44.60
2018-05-04T17:53:54.803Z,44.80
2018-05-04T17:56:26.818Z,44.70
2018-05-04T17:58:57.307Z,45.80
2018-05-04T18:01:30.510Z,45.30
2018-05-04T18:04:02.415Z,45.50
2018-05-04T18:06:36.392Z,45.60
2018-05-04T18:09:08.377Z,45.90
2018-05-04T18:11:40.712Z,46.20
2018-05-04T18:14:13.323Z,45.70
2018-05-04T18:16:45.162Z,45.70
2018-05-04T18:19:15.795Z,46.20
2018-05-04T18:21:46.645Z,45.90
2018-05-04T18:24:17.679Z,46.60
2018-05-04T18:26:48.987Z,46.70
2018-05-04T18:29:19.343Z,46.70
2018-05-04T18:31:50.005Z,47.00
2018-05-04T18:34:20.671Z,47.30
2018-05-04T18:36:51.040Z,47.50
2018-05-04T18:39:22.351Z,48.00
2018-05-04T18:41:53.118Z,48.00
2018-05-04T18:44:24.261Z,48.00
2018-05-04T18:46:56.629Z,48.10
2018-05-04T18:49:27.948Z,48.60
2018-05-04T18:51:59.958Z,48.50
2018-05-04T18:54:31.306Z,48.60
2018-05-04T18:57:03.731Z,47.80
2018-05-04T18:59:36.346Z,48.60
2018-05-04T19:02:08.583Z,48.50
2018-05-04T19:04:42.527Z,48.40
2018-05-04T19:07:14.566Z,48.50
2018-05-04T19:09:45.186Z,48.40
2018-05-04T19:12:18.787Z,49.10
2018-05-04T19:14:52.897Z,49.10
2018-05-04T19:17:24.058Z,49.00
2018-05-04T19:19:54.936Z,50.40
2018-05-04T19:22:27.449Z,50.50
2018-05-04T19:24:57.648Z,50.70
2018-05-04T19:27:30.140Z,50.80
2018-05-04T19:30:00.479Z,51.10
2018-05-04T19:32:31.223Z,50.30
2018-05-04T19:35:04.033Z,49.90
2018-05-04T19:37:35.753Z,49.80
2018-05-04T19:40:07.891Z,49.70
2018-05-04T19:42:38.720Z,49.60
2018-05-04T19:45:09.700Z,49.60
2018-05-04T19:47:40.003Z,49.50
2018-05-04T19:50:10.207Z,49.80
2018-05-04T19:52:42.165Z,49.90
2018-05-04T19:55:13.140Z,50.50
2018-05-04T19:57:44.263Z,49.80
2018-05-04T20:00:14.836Z,49.90
2018-05-04T20:02:46.273Z,50.40
2018-05-04T20:06:20.122Z,50.40
2018-05-04T20:08:51.360Z,52.10
2018-05-04T20:11:21.796Z,50.80
2018-05-04T20:13:54.016Z,51.10
2018-05-04T20:16:26.003Z,51.80
2018-05-04T20:18:56.305Z,51.80
2018-05-04T20:21:26.524Z,51.80
2018-05-04T20:23:57.851Z,52.70
2018-05-04T20:26:28.013Z,52.10
2018-05-04T20:28:59.017Z,53.60
2018-05-04T20:31:29.413Z,53.00
2018-05-04T20:34:01.498Z,53.40
2018-05-04T20:36:32.036Z,53.40
2018-05-04T20:39:03.427Z,53.40
2018-05-04T20:41:33.788Z,53.30
2018-05-04T20:44:04.825Z,53.30
2018-05-04T20:46:34.880Z,53.30
2018-05-04T20:49:04.943Z,53.40
2018-05-04T20:51:35.778Z,53.70
2018-05-04T20:54:06.762Z,53.30
2018-05-04T20:56:36.865Z,53.40
2018-05-04T20:59:07.352Z,53.40
2018-05-04T21:01:38.190Z,53.30
2018-05-04T21:04:08.384Z,53.40
2018-05-04T21:06:39.779Z,53.40
2018-05-04T21:09:10.570Z,54.20
2018-05-04T21:11:42.177Z,54.40
2018-05-04T21:14:13.052Z,54.60
2018-05-04T21:16:43.075Z,54.50
2018-05-04T21:19:13.342Z,54.60
2018-05-04T21:21:43.413Z,55.10
2018-05-04T21:24:13.782Z,55.30
2018-05-04T21:26:44.392Z,55.90
2018-05-04T21:29:16.476Z,55.00
2018-05-04T21:31:48.208Z,54.70
2018-05-04T21:34:18.547Z,54.10
2018-05-04T21:36:48.707Z,55.10
2018-05-04T21:39:19.682Z,55.20
2018-05-04T21:41:50.246Z,55.10
2018-05-04T21:44:22.119Z,55.90
2018-05-04T21:46:52.426Z,55.90
2018-05-04T21:49:23.863Z,56.00
2018-05-04T21:51:55.947Z,56.00
2018-05-04T21:54:26.397Z,55.80
2018-05-04T21:56:57.161Z,56.90
2018-05-04T21:59:27.352Z,55.20
2018-05-04T22:01:58.351Z,55.60
2018-05-04T22:04:28.880Z,55.70
2018-05-04T22:07:00.091Z,56.10
2018-05-04T22:09:31.720Z,55.70
2018-05-04T22:12:04.759Z,55.70
2018-05-04T22:14:37.251Z,55.90
2018-05-04T22:17:08.114Z,55.90
2018-05-04T22:19:39.492Z,56.10
2018-05-04T22:22:09.967Z,56.10
2018-05-04T22:24:40.380Z,56.00
2018-05-04T22:27:10.722Z,55.70
2018-05-04T22:29:40.906Z,56.10
2018-05-04T22:32:10.986Z,56.20
2018-05-04T22:34:44.751Z,57.00
2018-05-04T22:37:16.547Z,57.00
2018-05-04T22:39:46.659Z,57.20
2018-05-04T22:42:16.649Z,57.00
2018-05-04T22:44:47.153Z,56.50
2018-05-04T22:47:17.717Z,56.50
2018-05-04T22:49:48.215Z,56.90
2018-05-04T22:52:18.551Z,56.90
2018-05-04T22:54:52.670Z,59.00
2018-05-04T22:57:23.444Z,56.60
2018-05-04T22:59:54.120Z,56.50
2018-05-04T23:02:24.259Z,56.50
2018-05-04T23:04:54.890Z,56.70
2018-05-04T23:07:25.139Z,56.90
2018-05-04T23:09:55.508Z,56.80
2018-05-04T23:12:27.115Z,57.20
2018-05-04T23:14:57.254Z,56.90
2018-05-04T23:17:28.725Z,56.60
2018-05-04T23:19:59.551Z,56.40
2018-05-04T23:22:31.462Z,56.50
2018-05-04T23:25:03.449Z,56.40
2018-05-04T23:27:33.647Z,56.30
2018-05-04T23:30:04.800Z,56.70
2018-05-04T23:32:35.208Z,57.00
2018-05-04T23:35:06.618Z,57.70
2018-05-04T23:37:37.684Z,57.60
2018-05-04T23:40:08.023Z,57.60
2018-05-04T23:42:38.210Z,57.60
2018-05-04T23:45:08.301Z,57.50
2018-05-04T23:47:38.780Z,57.20
2018-05-04T23:50:09.189Z,57.30
2018-05-04T23:52:39.464Z,57.00
2018-05-04T23:55:10.059Z,57.80
2018-05-04T23:57:40.899Z,57.40
